.
WxDataArchive / Data Records for 2007-03-18
2007-03-17 March 2007 2007-03-19

Data Records for Sunday, 18 March 2007

Time	Temp	Chill	HIndex	Humid	Dewpt	 Wind 	HiWind	WindDir	Rain 	Barom 
-----	----	-----	------	-----	-----	------	------	-------	-----	----- 
00:00	26.0	26.0	26.0	54	11.7	0	2	315	0.00	30.184 
00:05	25.8	25.8	25.8	55	11.9	0	3	315	0.00	30.180 
00:10	25.6	25.6	25.6	56	12.1	0	1	315	0.00	30.181 
00:15	25.6	25.6	25.6	56	12.1	0	2	315	0.00	30.180 
00:20	25.4	25.4	25.4	56	11.9	0	1	315	0.00	30.182 
00:25	25.3	25.3	25.3	57	12.2	0	1	315	0.00	30.183 
00:30	25.1	25.1	25.1	57	12.0	0	1	315	0.00	30.182 
00:35	25.0	25.0	25.0	58	12.3	0	1	315	0.00	30.184 
00:40	24.8	24.8	24.8	58	12.1	0	1	315	0.00	30.184 
00:45	24.7	24.7	24.7	58	12.1	0	1	315	0.00	30.184 
00:50	24.7	24.7	24.7	58	12.1	0	2	315	0.00	30.185 
00:55	24.5	24.5	24.5	59	12.3	0	1	315	0.00	30.185 
01:00	24.4	24.4	24.4	59	12.2	0	1	315	0.00	30.185 
01:05	24.4	24.4	24.4	59	12.2	0	1	315	0.00	30.185 
01:10	24.2	24.2	24.2	59	12.0	0	1	315	0.00	30.184 
01:15	24.1	24.1	24.1	60	12.3	0	1	292	0.00	30.184 
01:20	23.8	23.8	23.8	60	12.0	0	1	292	0.00	30.183 
01:25	23.6	23.6	23.6	61	12.2	0	0	---	0.00	30.181 
01:30	23.5	23.5	23.5	62	12.4	0	1	292	0.00	30.181 
01:35	23.2	23.2	23.2	62	12.1	0	0	---	0.00	30.185 
01:40	23.0	23.0	23.0	63	12.3	0	0	---	0.00	30.186 
01:45	22.7	22.7	22.7	64	12.4	0	0	---	0.00	30.188 
01:50	22.5	22.5	22.5	64	12.2	0	0	---	0.00	30.191 
01:55	22.4	22.4	22.4	65	12.4	0	0	---	0.00	30.192 
02:00	22.2	22.2	22.2	66	12.6	0	0	---	0.00	30.192 
02:05	22.2	22.2	22.2	66	12.6	0	0	---	0.00	30.192 
02:10	22.1	22.1	22.1	66	12.5	0	0	---	0.00	30.194 
02:15	21.8	21.8	21.8	66	12.2	0	0	---	0.00	30.196 
02:20	21.6	21.6	21.6	67	12.4	0	0	---	0.00	30.200 
02:25	21.4	21.4	21.4	68	12.5	0	0	---	0.00	30.201 
02:30	21.3	21.3	21.3	68	12.4	0	0	---	0.00	30.202 
02:35	21.1	21.1	21.1	68	12.2	0	0	---	0.00	30.200 
02:40	21.0	21.0	21.0	69	12.5	0	0	---	0.00	30.201 
02:45	21.0	21.0	21.0	69	12.5	0	0	---	0.00	30.201 
02:50	21.0	21.0	21.0	69	12.5	0	0	---	0.00	30.201 
02:55	21.0	21.0	21.0	69	12.5	0	0	---	0.00	30.203 
03:00	20.8	20.8	20.8	70	12.6	0	0	---	0.00	30.202 
03:05	20.6	20.6	20.6	70	12.4	0	0	---	0.00	30.203 
03:10	20.6	20.6	20.6	71	12.7	0	0	---	0.00	30.205 
03:15	20.5	20.5	20.5	71	12.6	0	1	292	0.00	30.206 
03:20	20.5	20.5	20.5	72	12.9	0	1	292	0.00	30.205 
03:25	20.6	20.6	20.6	72	13.0	0	0	---	0.00	30.207 
03:30	20.8	20.8	20.8	73	13.5	0	1	292	0.00	30.207 
03:35	21.0	21.0	21.0	73	13.7	0	1	292	0.00	30.208 
03:40	21.1	21.1	21.1	73	13.8	0	1	292	0.00	30.208 
03:45	21.3	21.3	21.3	73	14.0	0	1	292	0.00	30.210 
03:50	21.4	21.4	21.4	73	14.1	0	1	292	0.00	30.210 
03:55	21.6	21.6	21.6	73	14.3	0	1	292	0.00	30.211 
04:00	21.6	21.6	21.6	73	14.3	0	2	292	0.00	30.211 
04:05	21.8	21.8	21.8	73	14.5	0	2	292	0.00	30.214 
04:10	21.8	21.8	21.8	73	14.5	0	1	292	0.00	30.215 
04:15	21.8	21.8	21.8	73	14.5	0	1	292	0.00	30.215 
04:20	21.8	21.8	21.8	73	14.5	0	1	292	0.00	30.215 
04:25	21.8	21.8	21.8	73	14.5	0	1	292	0.00	30.213 
04:30	21.8	21.8	21.8	73	14.5	0	1	292	0.00	30.216 
04:35	21.8	21.8	21.8	73	14.5	0	1	292	0.00	30.218 
04:40	21.6	21.6	21.6	73	14.3	0	1	292	0.00	30.220 
04:45	21.6	21.6	21.6	74	14.6	0	1	292	0.00	30.220 
04:50	21.8	21.8	21.8	74	14.8	0	1	292	0.00	30.222 
04:55	21.8	21.8	21.8	74	14.8	0	0	---	0.00	30.223 
05:00	21.8	21.8	21.8	74	14.8	0	1	292	0.00	30.223 
05:05	21.8	21.8	21.8	74	14.8	0	1	292	0.00	30.225 
05:10	21.8	21.8	21.8	74	14.8	0	0	---	0.00	30.227 
05:15	21.8	21.8	21.8	74	14.8	0	1	292	0.00	30.226 
05:20	21.8	21.8	21.8	74	14.8	0	1	292	0.00	30.227 
05:25	21.6	21.6	21.6	74	14.6	0	1	292	0.00	30.228 
05:30	21.6	21.6	21.6	74	14.6	0	0	---	0.00	30.227 
05:35	21.4	21.4	21.4	75	14.7	0	0	---	0.00	30.230 
05:40	21.3	21.3	21.3	75	14.6	0	0	---	0.00	30.231 
05:45	21.1	21.1	21.1	75	14.4	0	0	---	0.00	30.233 
05:50	21.0	21.0	21.0	75	14.3	0	0	---	0.00	30.233 
05:55	20.8	20.8	20.8	76	14.5	0	0	---	0.00	30.232 
06:00	20.6	20.6	20.6	75	14.0	0	0	---	0.00	30.232 
06:05	20.3	20.3	20.3	76	14.0	0	0	---	0.00	30.237 
06:10	20.2	20.2	20.2	76	13.9	0	0	---	0.00	30.242 
06:15	20.0	20.0	20.0	77	14.0	0	0	---	0.00	30.243 
06:20	19.9	19.9	19.9	77	13.9	0	0	---	0.00	30.241 
06:25	19.9	19.9	19.9	78	14.2	0	0	---	0.00	30.243 
06:30	19.7	19.7	19.7	78	14.0	0	0	---	0.00	30.244 
06:35	19.5	19.5	19.5	78	13.8	0	0	---	0.00	30.245 
06:40	19.5	19.5	19.5	78	13.8	0	0	---	0.00	30.246 
06:45	19.4	19.4	19.4	79	14.0	0	0	---	0.00	30.246 
06:50	19.4	19.4	19.4	79	14.0	0	0	---	0.00	30.248 
06:55	19.4	19.4	19.4	79	14.0	0	0	---	0.00	30.250 
07:00	19.5	19.5	19.5	79	14.1	0	0	---	0.00	30.251 
07:05	19.5	19.5	19.5	79	14.1	0	0	---	0.00	30.255 
07:10	19.7	19.7	19.7	80	14.6	0	0	---	0.00	30.255 
07:15	19.9	19.9	19.9	80	14.7	0	0	---	0.00	30.258 
07:20	20.0	20.0	20.0	80	14.8	0	0	---	0.00	30.259 
07:25	20.5	20.5	20.5	79	15.0	0	0	---	0.00	30.260 
07:30	21.1	21.1	21.1	78	15.3	0	0	---	0.00	30.262 
07:35	21.8	21.8	21.8	78	16.0	0	0	---	0.00	30.262 
07:40	22.4	22.4	22.4	77	16.3	0	0	---	0.00	30.263 
07:45	23.0	23.0	23.0	76	16.6	0	0	---	0.00	30.263 
07:50	23.8	23.8	23.8	74	16.7	0	1	292	0.00	30.265 
07:55	24.4	24.4	24.4	73	17.0	0	1	292	0.00	30.266 
08:00	25.1	25.1	25.1	71	17.0	0	1	292	0.00	30.266 
08:05	25.6	25.6	25.6	69	16.9	0	1	292	0.00	30.272 
08:10	26.0	26.0	26.0	68	16.9	0	2	292	0.00	30.275 
08:15	26.4	26.4	26.4	68	17.3	0	1	292	0.00	30.276 
08:20	26.7	26.7	26.7	66	16.9	0	1	292	0.00	30.274 
08:25	27.2	27.2	27.2	66	17.4	0	1	292	0.00	30.276 
08:30	27.8	27.8	27.8	65	17.6	0	1	292	0.00	30.278 
08:35	28.2	28.2	28.2	63	17.2	0	2	248	0.00	30.278 
08:40	28.7	28.7	28.7	62	17.4	0	1	248	0.00	30.279 
08:45	29.1	29.1	29.1	61	17.4	0	2	248	0.00	30.281 
08:50	29.5	29.5	29.5	60	17.3	0	1	248	0.00	30.283 
08:55	30.0	30.0	30.0	58	17.0	1	2	248	0.00	30.285 
09:00	30.4	30.4	30.4	58	17.4	1	2	248	0.00	30.287 
09:05	31.0	31.0	31.0	55	16.8	0	1	248	0.00	30.287 
09:10	31.5	31.5	31.5	53	16.4	1	3	248	0.00	30.287 
09:15	31.8	31.8	31.8	52	16.2	1	2	270	0.00	30.286 
09:20	32.2	32.2	32.2	51	16.1	0	2	292	0.00	30.286 
09:25	32.8	32.8	32.8	50	16.2	1	3	292	0.00	30.287 
09:30	33.2	33.2	33.2	50	16.6	1	3	292	0.00	30.287 
09:35	33.5	33.5	33.5	47	15.5	1	3	225	0.00	30.288 
09:40	33.5	33.5	33.5	48	15.9	1	2	315	0.00	30.289 
09:45	33.7	33.7	33.7	47	15.6	1	3	338	0.00	30.289 
09:50	34.1	34.1	34.1	47	16.0	0	2	338	0.00	30.289 
09:55	34.7	34.7	34.7	46	16.1	0	2	338	0.00	30.291 
10:00	34.9	34.9	34.9	45	15.7	1	2	338	0.00	30.291 
10:05	34.7	34.7	34.7	43	14.5	1	2	292	0.00	30.290 
10:10	34.9	34.9	34.9	41	13.6	1	3	292	0.00	30.290 
10:15	35.2	35.2	35.2	42	14.4	1	4	248	0.00	30.291 
10:20	35.9	35.9	35.9	48	18.1	1	4	90	0.00	30.290 
10:25	36.5	36.5	36.5	43	16.2	1	4	68	0.00	30.288 
10:30	36.9	36.9	36.9	39	14.3	1	5	248	0.00	30.286 
10:35	37.0	37.0	37.0	37	13.2	1	2	248	0.00	30.285 
10:40	36.6	36.6	36.6	40	14.6	2	6	248	0.00	30.285 
10:45	36.5	36.5	36.5	39	13.9	2	4	248	0.00	30.284 
10:50	36.5	36.5	36.5	41	15.1	1	5	248	0.00	30.285 
10:55	37.0	37.0	37.0	39	14.4	1	3	270	0.00	30.288 
11:00	37.5	37.5	37.5	42	16.5	2	6	248	0.00	30.286 
11:05	37.6	37.6	37.6	40	15.5	1	2	248	0.00	30.285 
11:10	37.3	37.3	37.3	41	15.8	3	7	248	0.00	30.289 
11:15	37.3	37.3	37.3	44	17.4	2	6	338	0.00	30.287 
11:20	37.6	37.6	37.6	40	15.5	1	3	292	0.00	30.286 
11:25	38.3	38.3	38.3	39	15.5	2	4	270	0.00	30.285 
11:30	38.3	38.3	38.3	39	15.5	3	7	248	0.00	30.287 
11:35	38.3	38.3	38.3	38	14.9	2	9	248	0.00	30.286 
11:40	38.2	38.2	38.2	42	17.2	3	6	248	0.00	30.286 
11:45	38.5	38.5	38.5	41	16.9	2	5	270	0.00	30.286 
11:50	38.8	38.8	38.8	39	16.0	2	5	248	0.00	30.284 
11:55	39.1	39.1	39.1	39	16.3	3	9	248	0.00	30.282 
12:00	39.2	39.2	39.2	39	16.3	2	5	248	0.00	30.281 
12:05	39.5	39.5	39.5	43	18.9	2	9	270	0.00	30.277 
12:10	40.1	40.1	40.1	43	19.4	2	5	338	0.00	30.279 
12:15	40.3	40.3	40.3	39	17.3	2	5	248	0.00	30.277 
12:20	40.3	40.3	40.3	40	17.9	2	7	338	0.00	30.275 
12:25	40.3	40.3	40.3	43	19.6	1	5	315	0.00	30.272 
12:30	40.9	40.9	40.9	42	19.6	2	5	270	0.00	30.275 
12:35	40.5	40.5	40.5	40	18.1	2	5	270	0.00	30.270 
12:40	40.5	40.5	40.5	39	17.5	3	7	248	0.00	30.268 
12:45	39.8	39.8	39.8	39	16.9	2	6	248	0.00	30.267 
12:50	40.1	40.1	40.1	39	17.2	3	6	270	0.00	30.267 
12:55	40.1	40.1	40.1	39	17.2	1	5	270	0.00	30.266 
13:00	40.9	40.9	40.9	45	21.2	1	3	202	0.00	30.263 
13:05	41.5	41.5	41.5	38	17.8	3	6	270	0.00	30.264 
13:10	40.8	40.8	40.8	37	16.6	2	7	270	0.00	30.265 
13:15	40.6	40.6	40.6	40	18.2	3	10	248	0.00	30.263 
13:20	39.9	37.2	39.9	42	18.7	4	12	270	0.00	30.262 
13:25	40.6	40.6	40.6	41	18.8	2	7	270	0.00	30.258 
13:30	41.3	41.3	41.3	40	18.8	3	10	270	0.00	30.254 
13:35	41.6	41.6	41.6	41	19.7	2	9	292	0.00	30.251 
13:40	41.3	41.3	41.3	41	19.4	3	6	248	0.00	30.251 
13:45	41.2	41.2	41.2	40	18.7	3	10	248	0.00	30.250 
13:50	40.6	40.6	40.6	39	17.6	2	9	270	0.00	30.250 
13:55	40.3	40.3	40.3	38	16.7	2	6	248	0.00	30.247 
14:00	40.2	40.2	40.2	40	17.8	1	4	270	0.00	30.244 
14:05	40.9	40.9	40.9	40	18.5	3	8	248	0.00	30.240 
14:10	41.6	41.6	41.6	39	18.5	3	11	270	0.00	30.239 
14:15	41.3	41.3	41.3	38	17.6	3	8	248	0.00	30.239 
14:20	40.8	40.8	40.8	36	15.9	2	5	270	0.00	30.239 
14:25	40.5	40.5	40.5	37	16.3	1	3	248	0.00	30.238 
14:30	40.5	40.5	40.5	34	14.4	2	6	270	0.00	30.238 
14:35	41.2	41.2	41.2	35	15.6	1	4	270	0.00	30.234 
14:40	42.3	42.3	42.3	35	16.6	2	5	248	0.00	30.233 
14:45	42.9	42.9	42.9	37	18.4	3	6	248	0.00	30.228 
14:50	43.8	43.8	43.8	37	19.2	2	9	248	0.00	30.224 
14:55	43.5	43.5	43.5	31	14.9	2	9	270	0.00	30.223 
15:00	43.6	43.6	43.6	34	17.1	2	8	248	0.00	30.224 
15:05	44.1	44.1	44.1	32	16.1	1	4	292	0.00	30.223 
15:10	43.8	43.8	43.8	33	16.6	2	5	270	0.00	30.222 
15:15	43.1	43.1	43.1	29	13.0	3	7	248	0.00	30.221 
15:20	42.8	42.8	42.8	32	15.0	2	10	248	0.00	30.218 
15:25	43.2	43.2	43.2	32	15.4	2	5	292	0.00	30.218 
15:30	42.6	42.6	42.6	31	14.1	2	6	270	0.00	30.218 
15:35	42.3	42.3	42.3	31	13.8	2	6	248	0.00	30.217 
15:40	41.9	41.9	41.9	31	13.5	2	5	248	0.00	30.216 
15:45	42.1	42.1	42.1	33	15.1	1	3	248	0.00	30.217 
15:50	42.5	42.5	42.5	32	14.7	1	4	248	0.00	30.215 
15:55	43.1	43.1	43.1	34	16.7	1	5	292	0.00	30.217 
16:00	43.2	43.2	43.2	31	14.6	3	7	248	0.00	30.213 
16:05	42.6	42.6	42.6	31	14.1	2	5	270	0.00	30.216 
16:10	42.5	42.5	42.5	33	15.4	1	4	292	0.00	30.213 
16:15	42.9	42.9	42.9	31	14.4	2	5	248	0.00	30.213 
16:20	43.3	43.3	43.3	30	14.0	1	4	248	0.00	30.210 
16:25	43.2	43.2	43.2	31	14.6	2	7	248	0.00	30.212 
16:30	42.9	42.9	42.9	31	14.4	1	4	270	0.00	30.208 
16:35	42.5	42.5	42.5	31	14.0	2	6	270	0.00	30.213 
16:40	42.2	42.2	42.2	32	14.5	1	3	0	0.00	30.207 
16:45	42.6	42.6	42.6	32	14.8	1	4	248	0.00	30.207 
16:50	43.1	43.1	43.1	32	15.3	2	9	248	0.00	30.211 
16:55	43.3	43.3	43.3	31	14.7	1	3	270	0.00	30.212 
17:00	43.1	43.1	43.1	31	14.5	2	4	270	0.00	30.212 
17:05	42.8	42.8	42.8	32	15.0	1	4	248	0.00	30.212 
17:10	42.8	42.8	42.8	31	14.3	1	2	270	0.00	30.214 
17:15	42.8	42.8	42.8	31	14.3	1	5	248	0.00	30.213 
17:20	42.6	42.6	42.6	32	14.8	1	3	270	0.00	30.214 
17:25	42.6	42.6	42.6	31	14.1	2	7	248	0.00	30.213 
17:30	42.6	42.6	42.6	31	14.1	1	4	248	0.00	30.211 
17:35	42.5	42.5	42.5	31	14.0	1	3	225	0.00	30.208 
17:40	42.3	42.3	42.3	32	14.6	0	2	270	0.00	30.207 
17:45	41.9	41.9	41.9	32	14.2	1	3	270	0.00	30.209 
17:50	41.6	41.6	41.6	31	13.2	1	4	225	0.00	30.208 
17:55	41.5	41.5	41.5	32	13.9	1	3	248	0.00	30.207 
18:00	41.3	41.3	41.3	32	13.7	1	4	248	0.00	30.207 
18:05	41.1	41.1	41.1	34	14.9	2	6	248	0.00	30.209 
18:10	40.9	40.9	40.9	33	14.0	2	5	248	0.00	30.208 
18:15	40.8	40.8	40.8	34	14.6	1	4	248	0.00	30.209 
18:20	40.6	40.6	40.6	35	15.1	1	2	248	0.00	30.209 
18:25	40.3	40.3	40.3	35	14.8	1	3	248	0.00	30.209 
18:30	40.2	40.2	40.2	36	15.4	1	4	248	0.00	30.209 
18:35	40.1	40.1	40.1	36	15.3	0	2	248	0.00	30.208 
18:40	39.8	39.8	39.8	38	16.3	0	1	248	0.00	30.207 
18:45	39.3	39.3	39.3	38	15.8	0	1	248	0.00	30.208 
18:50	39.1	39.1	39.1	39	16.3	0	2	248	0.00	30.212 
18:55	38.8	38.8	38.8	39	16.0	0	2	248	0.00	30.212 
19:00	38.6	38.6	38.6	40	16.4	0	1	248	0.00	30.212 
19:05	38.3	38.3	38.3	41	16.7	0	1	248	0.00	30.206 
19:10	38.0	38.0	38.0	42	17.0	0	1	248	0.00	30.207 
19:15	37.8	37.8	37.8	43	17.3	0	0	---	0.00	30.206 
19:20	37.5	37.5	37.5	43	17.1	0	1	248	0.00	30.207 
19:25	37.2	37.2	37.2	44	17.3	0	0	---	0.00	30.206 
19:30	36.9	36.9	36.9	44	17.0	0	1	248	0.00	30.206 
19:35	36.9	36.9	36.9	45	17.6	0	1	248	0.00	30.205 
19:40	36.6	36.6	36.6	47	18.3	0	0	---	0.00	30.206 
19:45	36.2	36.2	36.2	48	18.4	0	0	---	0.00	30.208 
19:50	35.9	35.9	35.9	49	18.6	0	0	---	0.00	30.207 
19:55	35.6	35.6	35.6	49	18.3	0	0	---	0.00	30.207 
20:00	35.3	35.3	35.3	51	19.0	0	0	---	0.00	30.206 
20:05	35.2	35.2	35.2	52	19.4	0	0	---	0.00	30.202 
20:10	35.0	35.0	35.0	52	19.2	0	0	---	0.00	30.203 
20:15	34.9	34.9	34.9	53	19.5	0	1	248	0.00	30.203 
20:20	34.7	34.7	34.7	53	19.3	0	0	---	0.00	30.203 
20:25	34.6	34.6	34.6	53	19.2	0	2	248	0.00	30.203 
20:30	34.6	34.6	34.6	53	19.2	0	1	248	0.00	30.201 
20:35	34.6	34.6	34.6	54	19.7	0	0	---	0.00	30.203 
20:40	34.3	34.3	34.3	54	19.4	0	0	---	0.00	30.203 
20:45	34.1	34.1	34.1	54	19.2	0	1	248	0.00	30.202 
20:50	34.0	34.0	34.0	55	19.6	0	0	---	0.00	30.203 
20:55	33.8	33.8	33.8	55	19.4	0	0	---	0.00	30.202 
21:00	33.8	33.8	33.8	55	19.4	0	1	248	0.00	30.203 
21:05	33.8	33.8	33.8	55	19.4	0	1	248	0.00	30.200 
21:10	33.7	33.7	33.7	55	19.3	0	0	---	0.00	30.201 
21:15	33.7	33.7	33.7	55	19.3	0	0	---	0.00	30.202 
21:20	33.5	33.5	33.5	56	19.5	0	0	---	0.00	30.202 
21:25	33.4	33.4	33.4	56	19.4	0	0	---	0.00	30.203 
21:30	33.4	33.4	33.4	57	19.8	0	1	248	0.00	30.202 
21:35	33.5	33.5	33.5	56	19.5	0	1	248	0.00	30.201 
21:40	33.7	33.7	33.7	56	19.7	0	1	248	0.00	30.202 
21:45	33.8	33.8	33.8	56	19.8	0	1	248	0.00	30.201 
21:50	33.8	33.8	33.8	56	19.8	0	1	248	0.00	30.201 
21:55	33.8	33.8	33.8	56	19.8	0	1	248	0.00	30.202 
22:00	34.0	34.0	34.0	56	20.0	0	1	248	0.00	30.200 
22:05	34.0	34.0	34.0	56	20.0	0	1	248	0.00	30.196 
22:10	34.0	34.0	34.0	56	20.0	0	1	248	0.00	30.195 
22:15	34.0	34.0	34.0	55	19.6	0	2	202	0.00	30.191 
22:20	34.0	34.0	34.0	55	19.6	0	2	202	0.00	30.193 
22:25	34.0	34.0	34.0	56	20.0	0	1	202	0.00	30.192 
22:30	33.8	33.8	33.8	56	19.8	0	2	225	0.00	30.191 
22:35	33.7	33.7	33.7	56	19.7	0	1	225	0.00	30.189 
22:40	33.5	33.5	33.5	56	19.5	0	1	225	0.00	30.185 
22:45	33.5	33.5	33.5	56	19.5	0	1	202	0.00	30.184 
22:50	33.5	33.5	33.5	56	19.5	0	1	180	0.00	30.182 
22:55	33.5	33.5	33.5	56	19.5	0	1	180	0.00	30.182 
23:00	33.5	33.5	33.5	56	19.5	0	1	202	0.00	30.184 
23:05	33.5	33.5	33.5	56	19.5	0	1	202	0.00	30.186 
23:10	33.5	33.5	33.5	56	19.5	0	1	202	0.00	30.185 
23:15	33.7	33.7	33.7	55	19.3	0	2	202	0.00	30.185 
23:20	33.7	33.7	33.7	56	19.7	0	2	225	0.00	30.184 
23:25	33.7	33.7	33.7	56	19.7	0	1	225	0.00	30.182 
23:30	33.7	33.7	33.7	56	19.7	0	1	225	0.00	30.180 
23:35	33.7	33.7	33.7	56	19.7	0	1	225	0.00	30.179 
23:40	33.5	33.5	33.5	57	19.9	0	1	225	0.00	30.178 
23:45	33.4	33.4	33.4	56	19.4	0	2	90	0.00	30.174 
23:50	33.5	33.5	33.5	56	19.5	0	1	90	0.00	30.170 
23:55	33.8	33.8	33.8	54	18.9	1	4	90	0.00	30.164 

CoCoRaHS
IN-AL-39
A2 Web Hosting
Creative Commons License
GoDaddy
Look for:

loaded 2017-12-13 09:54:49 • last modified 2010-11-18 10:43:29
Privacy PolicyDisclaimer
• wx.awcolley.com is powered by PmWiki v.2002016 •
• all content (unless otherwise noted) © 2017 A W Colley